createdAt,value
2018-09-24T00:01:29.593Z,100025.54
2018-09-24T00:03:58.120Z,100031.96
2018-09-24T00:06:26.652Z,100043.63
2018-09-24T00:08:55.224Z,100045.94
2018-09-24T00:11:23.741Z,100040.33
2018-09-24T00:13:52.201Z,100040.01
2018-09-24T00:16:20.742Z,100051.10
2018-09-24T00:18:49.270Z,100054.27
2018-09-24T00:21:17.776Z,100059.72
2018-09-24T00:23:46.295Z,100069.19
2018-09-24T00:26:14.816Z,100070.66
2018-09-24T00:28:43.357Z,100081.11
2018-09-24T00:31:12.815Z,100077.23
2018-09-24T00:33:41.256Z,100083.38
2018-09-24T00:36:09.844Z,100094.30
2018-09-24T00:38:38.388Z,100095.38
2018-09-24T00:41:06.924Z,100099.20
2018-09-24T00:43:35.455Z,100098.85
2018-09-24T00:46:03.929Z,100104.56
2018-09-24T00:48:32.417Z,100111.36
2018-09-24T00:51:00.932Z,100106.30
2018-09-24T00:53:29.422Z,100116.80
2018-09-24T00:55:57.892Z,100124.59
2018-09-24T00:58:27.338Z,100124.55
2018-09-24T01:00:55.868Z,100117.66
2018-09-24T01:03:24.642Z,100122.05
2018-09-24T01:05:53.141Z,100125.88
2018-09-24T01:08:22.220Z,100129.73
2018-09-24T01:10:50.816Z,100140.12
2018-09-24T01:13:19.384Z,100139.95
2018-09-24T01:15:47.872Z,100137.98
2018-09-24T01:18:17.038Z,100151.02
2018-09-24T01:20:45.540Z,100155.30
2018-09-24T01:23:14.128Z,100163.02
2018-09-24T01:25:42.693Z,100165.29
2018-09-24T01:28:12.280Z,100178.02
2018-09-24T01:30:40.812Z,100180.36
2018-09-24T01:33:09.366Z,100183.37
2018-09-24T01:35:37.815Z,100187.14
2018-09-24T01:38:06.359Z,100193.34
2018-09-24T01:40:34.836Z,100190.94
2018-09-24T01:43:04.230Z,100192.69
2018-09-24T01:45:32.676Z,100198.05
2018-09-24T01:48:01.644Z,100196.76
2018-09-24T01:50:30.136Z,100200.78
2018-09-24T01:53:03.462Z,100208.09
2018-09-24T01:55:31.891Z,100214.59
2018-09-24T01:58:00.413Z,100215.77
2018-09-24T02:00:28.836Z,100216.50
2018-09-24T02:02:57.298Z,100219.20
2018-09-24T02:05:25.774Z,100227.24
2018-09-24T02:07:54.297Z,100229.93
2018-09-24T02:10:23.271Z,100233.41
2018-09-24T02:12:53.804Z,100238.83
2018-09-24T02:15:27.729Z,100238.66
2018-09-24T02:17:57.267Z,100239.09
2018-09-24T02:20:25.804Z,100243.40
2018-09-24T02:22:54.292Z,100246.91
2018-09-24T02:25:22.772Z,100251.93
2018-09-24T02:27:52.239Z,100259.88
2018-09-24T02:30:20.947Z,100262.48
2018-09-24T02:32:49.440Z,100267.41
2018-09-24T02:35:18.015Z,100265.69
2018-09-24T02:37:46.585Z,100274.09
2018-09-24T02:40:21.808Z,100279.73
2018-09-24T02:42:51.345Z,100278.94
2018-09-24T02:45:20.148Z,100282.82
2018-09-24T02:47:48.818Z,100295.56
2018-09-24T02:50:17.307Z,100292.38
2018-09-24T02:52:45.751Z,100297.85
2018-09-24T02:55:19.569Z,100305.98
2018-09-24T02:57:48.035Z,100306.64
2018-09-24T03:00:22.275Z,100309.13
2018-09-24T03:02:50.695Z,100318.09
2018-09-24T03:05:19.259Z,100321.20
2018-09-24T03:07:48.623Z,100315.91
2018-09-24T03:10:17.121Z,100317.98
2018-09-24T03:12:52.066Z,100324.30
2018-09-24T03:15:20.963Z,100332.53
2018-09-24T03:17:49.749Z,100330.62
2018-09-24T03:20:18.339Z,100335.00
2018-09-24T03:22:46.770Z,100337.36
2018-09-24T03:25:17.381Z,100335.37
2018-09-24T03:27:46.243Z,100340.26
2018-09-24T03:30:14.832Z,100350.47
2018-09-24T03:32:43.371Z,100353.02
2018-09-24T03:35:11.880Z,100359.27
2018-09-24T03:37:40.395Z,100364.19
2018-09-24T03:40:08.863Z,100361.25
2018-09-24T03:42:38.179Z,100364.69
2018-09-24T03:45:06.619Z,100353.77
2018-09-24T03:47:35.829Z,100360.66
2018-09-24T03:50:04.294Z,100369.72
2018-09-24T03:52:32.767Z,100367.07
2018-09-24T03:55:01.252Z,100364.55
2018-09-24T03:57:29.791Z,100371.62
2018-09-24T03:59:58.407Z,100376.73
2018-09-24T04:02:27.010Z,100374.81
2018-09-24T04:05:00.848Z,100382.20
2018-09-24T04:07:34.506Z,100388.44
2018-09-24T04:10:08.184Z,100393.63
2018-09-24T04:12:41.948Z,100406.25
2018-09-24T04:15:15.819Z,100415.12
2018-09-24T04:17:49.715Z,100426.86
2018-09-24T04:20:23.321Z,100428.73
2018-09-24T04:22:57.331Z,100430.39
2018-09-24T04:25:30.936Z,100427.13
2018-09-24T04:28:05.376Z,100420.47
2018-09-24T04:30:39.124Z,100430.20
2018-09-24T04:33:12.681Z,100443.44
2018-09-24T04:35:46.560Z,100452.55
2018-09-24T04:38:20.473Z,100453.52
2018-09-24T04:40:54.262Z,100460.91
2018-09-24T04:43:27.780Z,100463.23
2018-09-24T04:46:01.523Z,100466.91
2018-09-24T04:48:35.500Z,100472.70
2018-09-24T04:51:09.287Z,100487.50
2018-09-24T04:53:42.977Z,100483.06
2018-09-24T04:56:16.795Z,100489.46
2018-09-24T04:58:51.363Z,100497.48
2018-09-24T05:01:26.283Z,100504.15
2018-09-24T05:03:59.893Z,100508.20
2018-09-24T05:06:34.909Z,100480.62
2018-09-24T05:09:10.624Z,100514.83
2018-09-24T05:11:44.251Z,100524.86
2018-09-24T05:14:17.956Z,100528.75
2018-09-24T05:16:51.462Z,100540.48
2018-09-24T05:19:26.123Z,100541.45
2018-09-24T05:22:00.128Z,100537.19
2018-09-24T05:24:33.924Z,100542.56
2018-09-24T05:27:08.084Z,100540.44
2018-09-24T05:29:42.531Z,100542.64
2018-09-24T05:32:16.393Z,100551.67
2018-09-24T05:34:49.918Z,100546.88
2018-09-24T05:37:23.517Z,100561.01
2018-09-24T05:39:57.813Z,100556.98
2018-09-24T05:42:31.511Z,100558.38
2018-09-24T05:45:05.291Z,100555.66
2018-09-24T05:47:39.039Z,100560.31
2018-09-24T05:50:13.376Z,100562.94
2018-09-24T05:52:47.201Z,100560.62
2018-09-24T05:55:21.072Z,100558.47
2018-09-24T05:57:54.788Z,100567.84
2018-09-24T06:00:28.897Z,100580.90
2018-09-24T06:03:03.155Z,100582.04
2018-09-24T06:05:37.794Z,100585.48
2018-09-24T06:08:11.647Z,100588.19
2018-09-24T06:10:48.617Z,100591.50
2018-09-24T06:13:22.328Z,100587.80
2018-09-24T06:15:56.291Z,100593.71
2018-09-24T06:18:30.148Z,100595.16
2018-09-24T06:21:03.815Z,100605.70
2018-09-24T06:23:38.015Z,100611.30
2018-09-24T06:26:11.939Z,100616.06
2018-09-24T06:28:46.597Z,100620.82
2018-09-24T06:31:21.436Z,100621.08
2018-09-24T06:33:55.540Z,100621.13
2018-09-24T06:36:29.135Z,100626.91
2018-09-24T06:39:02.888Z,100629.11
2018-09-24T06:41:37.489Z,100633.04
2018-09-24T06:44:11.348Z,100634.58
2018-09-24T06:46:45.137Z,100637.98
2018-09-24T06:49:19.939Z,100647.26
2018-09-24T06:51:54.463Z,100644.52
2018-09-24T06:54:28.268Z,100649.00
2018-09-24T06:57:02.068Z,100650.92
2018-09-24T06:59:35.809Z,100655.73
2018-09-24T07:02:10.398Z,100656.28
2018-09-24T07:04:44.121Z,100657.50
2018-09-24T07:07:17.862Z,100660.73
2018-09-24T07:09:51.760Z,100668.66
2018-09-24T07:12:25.589Z,100666.88
2018-09-24T07:15:00.230Z,100675.69
2018-09-24T07:17:33.852Z,100672.25
2018-09-24T07:20:07.652Z,100671.78
2018-09-24T07:22:41.501Z,100684.41
2018-09-24T07:25:15.193Z,100692.22
2018-09-24T07:27:48.972Z,100692.50
2018-09-24T07:30:22.774Z,100700.84
2018-09-24T07:32:58.445Z,100695.81
2018-09-24T07:35:32.043Z,100704.27
2018-09-24T07:38:05.664Z,100701.65
2018-09-24T07:40:39.388Z,100712.31
2018-09-24T07:43:13.813Z,100715.25
2018-09-24T07:45:47.325Z,100725.90
2018-09-24T07:48:21.118Z,100721.96
2018-09-24T07:50:54.900Z,100724.84
2018-09-24T07:53:29.442Z,100731.72
2018-09-24T07:56:03.325Z,100739.32
2018-09-24T07:58:37.167Z,100746.17
2018-09-24T08:01:10.877Z,100751.25
2018-09-24T08:03:45.893Z,100760.91
2018-09-24T08:06:19.714Z,100759.27
2018-09-24T08:08:53.812Z,100754.70
2018-09-24T08:11:27.579Z,100756.19
2018-09-24T08:14:01.740Z,100756.77
2018-09-24T08:16:35.450Z,100770.29
2018-09-24T08:19:09.089Z,100771.37
2018-09-24T08:21:42.888Z,100779.11
2018-09-24T08:24:17.663Z,100780.48
2018-09-24T08:26:51.283Z,100775.14
2018-09-24T08:29:25.112Z,100777.58
2018-09-24T08:31:58.875Z,100775.52
2018-09-24T08:34:32.984Z,100769.80
2018-09-24T08:37:06.656Z,100765.92
2018-09-24T08:39:40.530Z,100764.30
2018-09-24T08:42:14.155Z,100763.69
2018-09-24T08:44:49.099Z,100765.04
2018-09-24T08:47:22.903Z,100768.41
2018-09-24T08:49:56.620Z,100757.00
2018-09-24T08:52:30.336Z,100751.95
2018-09-24T08:55:04.832Z,100766.93
2018-09-24T08:57:38.556Z,100752.98
2018-09-24T09:00:12.562Z,100754.09
2018-09-24T09:02:46.151Z,100759.70
2018-09-24T09:05:20.687Z,100752.88
2018-09-24T09:07:54.724Z,100763.17
2018-09-24T09:10:28.750Z,100768.55
2018-09-24T09:13:02.471Z,100770.34
2018-09-24T09:15:36.725Z,100773.94
2018-09-24T09:18:10.579Z,100772.81
2018-09-24T09:20:44.418Z,100787.91
2018-09-24T09:23:18.147Z,100783.77
2018-09-24T09:25:52.035Z,100779.91
2018-09-24T09:28:25.597Z,100774.38
2018-09-24T09:30:59.207Z,100775.36
2018-09-24T09:33:32.936Z,100777.89
2018-09-24T09:36:07.019Z,100772.45
2018-09-24T09:38:40.865Z,100769.85
2018-09-24T09:41:14.612Z,100774.15
2018-09-24T09:43:48.221Z,100771.51
2018-09-24T09:46:22.438Z,100770.53
2018-09-24T09:48:56.210Z,100782.33
2018-09-24T09:51:29.988Z,100775.38
2018-09-24T09:54:03.664Z,100782.95
2018-09-24T09:56:38.315Z,100783.80
2018-09-24T09:59:12.134Z,100778.81
2018-09-24T10:01:45.963Z,100775.51
2018-09-24T10:04:19.692Z,100779.08
2018-09-24T10:06:54.332Z,100782.10
2018-09-24T10:09:28.168Z,100788.77
2018-09-24T10:12:01.887Z,100781.50
2018-09-24T10:14:35.377Z,100795.03
2018-09-24T10:17:09.581Z,100794.14
2018-09-24T10:19:43.383Z,100795.02
2018-09-24T10:22:17.174Z,100800.81
2018-09-24T10:24:50.795Z,100790.09
2018-09-24T10:27:26.514Z,100782.68
2018-09-24T10:30:00.120Z,100791.08
2018-09-24T10:32:34.044Z,100797.14
2018-09-24T10:35:07.740Z,100802.52
2018-09-24T10:37:41.940Z,100799.88
2018-09-24T10:40:15.507Z,100791.56
2018-09-24T10:42:49.415Z,100794.25
2018-09-24T10:45:23.167Z,100794.59
2018-09-24T10:47:57.303Z,100793.23
2018-09-24T10:50:31.223Z,100788.45
2018-09-24T10:53:05.405Z,100793.03
2018-09-24T10:55:39.165Z,100787.59
2018-09-24T10:58:13.795Z,100788.31
2018-09-24T11:00:47.566Z,100788.76
2018-09-24T11:03:21.199Z,100796.66
2018-09-24T11:05:55.032Z,100806.28
2018-09-24T11:08:29.493Z,100801.66
2018-09-24T11:11:03.382Z,100801.08
2018-09-24T11:13:37.107Z,100796.59
2018-09-24T11:16:11.033Z,100802.16
2018-09-24T11:18:45.415Z,100802.39
2018-09-24T11:21:19.333Z,100787.65
2018-09-24T11:23:53.211Z,100795.26
2018-09-24T11:29:02.648Z,100791.31
2018-09-24T11:31:36.380Z,100799.28
2018-09-24T11:34:10.281Z,100788.89
2018-09-24T11:36:43.848Z,100802.01
2018-09-24T11:39:17.523Z,100798.94
2018-09-24T11:41:51.183Z,100794.00
2018-09-24T11:44:25.467Z,100793.13
2018-09-24T11:46:59.368Z,100790.34
2018-09-24T11:49:34.095Z,100798.48
2018-09-24T11:52:07.772Z,100775.84
2018-09-24T11:54:41.368Z,100774.20
2018-09-24T11:57:15.164Z,100771.12
2018-09-24T11:59:49.357Z,100767.09
2018-09-24T12:02:23.547Z,100723.53
2018-09-24T12:04:57.340Z,100762.67
2018-09-24T12:07:31.177Z,100760.91
2018-09-24T12:10:04.815Z,100757.48
2018-09-24T12:12:38.564Z,100749.67
2018-09-24T12:15:12.293Z,100757.12
2018-09-24T12:17:46.970Z,100749.45
2018-09-24T12:20:21.644Z,100752.69
2018-09-24T12:22:55.400Z,100724.95
2018-09-24T12:25:29.104Z,100751.91
2018-09-24T12:28:02.859Z,100752.70
2018-09-24T12:30:37.445Z,100748.50
2018-09-24T12:33:11.106Z,100756.97
2018-09-24T12:35:44.822Z,100745.30
2018-09-24T12:38:18.326Z,100747.94
2018-09-24T12:40:52.979Z,100750.20
2018-09-24T12:43:27.459Z,100745.68
2018-09-24T12:46:01.192Z,100732.74
2018-09-24T12:48:34.770Z,100728.98
2018-09-24T12:51:08.908Z,100732.60
2018-09-24T12:53:42.700Z,100727.51
2018-09-24T12:56:16.402Z,100734.50
2018-09-24T12:58:50.237Z,100731.73
2018-09-24T13:01:24.227Z,100734.44
2018-09-24T13:03:57.743Z,100738.82
2018-09-24T13:06:31.578Z,100731.51
2018-09-24T13:09:05.903Z,100730.20
2018-09-24T13:11:40.253Z,100725.92
2018-09-24T13:14:13.967Z,100722.22
2018-09-24T13:16:47.687Z,100723.06
2018-09-24T13:19:21.396Z,100724.98
2018-09-24T13:21:56.029Z,100716.19
2018-09-24T13:24:29.647Z,100721.79
2018-09-24T13:27:03.424Z,100721.70
2018-09-24T13:29:37.115Z,100720.66
2018-09-24T13:32:12.616Z,100725.84
2018-09-24T13:34:46.231Z,100717.28
2018-09-24T13:37:20.048Z,100729.27
2018-09-24T13:39:53.679Z,100734.39
2018-09-24T13:42:27.528Z,100733.81
2018-09-24T13:45:01.325Z,100732.66
2018-09-24T13:47:34.998Z,100730.36
2018-09-24T13:50:08.630Z,100732.17
2018-09-24T13:52:42.594Z,100729.39
2018-09-24T13:55:16.343Z,100731.58
2018-09-24T13:57:49.961Z,100733.83
2018-09-24T14:00:23.732Z,100723.40
2018-09-24T14:02:58.550Z,100721.45
2018-09-24T14:05:33.026Z,100721.10
2018-09-24T14:08:06.779Z,100721.16
2018-09-24T14:10:40.556Z,100721.99
2018-09-24T14:13:15.062Z,100718.26
2018-09-24T14:15:48.700Z,100714.87
2018-09-24T14:18:22.419Z,100719.13
2018-09-24T14:20:56.623Z,100723.41
2018-09-24T14:23:30.948Z,100711.58
2018-09-24T14:26:05.473Z,100709.47
2018-09-24T14:28:39.347Z,100708.87
2018-09-24T14:31:13.728Z,100714.69
2018-09-24T14:33:48.500Z,100712.84
2018-09-24T14:36:22.323Z,100709.77
2018-09-24T14:38:56.009Z,100712.67
2018-09-24T14:41:29.747Z,100711.78
2018-09-24T14:44:04.266Z,100711.44
2018-09-24T14:46:38.115Z,100708.71
2018-09-24T14:49:12.429Z,100707.02
2018-09-24T14:51:46.811Z,100707.19
2018-09-24T14:54:21.435Z,100707.87
2018-09-24T14:56:55.104Z,100696.10
2018-09-24T14:59:28.829Z,100697.00
2018-09-24T15:02:02.685Z,100698.00
2018-09-24T15:04:36.939Z,100700.17
2018-09-24T15:07:10.679Z,100697.64
2018-09-24T15:09:44.354Z,100694.30
2018-09-24T15:12:18.189Z,100699.69
2018-09-24T15:14:52.685Z,100703.77
2018-09-24T15:17:26.335Z,100705.08
2018-09-24T15:20:00.126Z,100702.14
2018-09-24T15:22:33.850Z,100707.58
2018-09-24T15:25:07.769Z,100711.62
2018-09-24T15:27:41.567Z,100709.06
2018-09-24T15:30:15.092Z,100706.44
2018-09-24T15:32:48.931Z,100709.69
2018-09-24T15:35:22.978Z,100707.07
2018-09-24T15:37:57.187Z,100708.46
2018-09-24T15:40:30.846Z,100705.31
2018-09-24T15:43:04.596Z,100705.78
2018-09-24T15:45:39.297Z,100707.53
2018-09-24T15:48:13.077Z,100700.08
2018-09-24T15:50:46.719Z,100702.53
2018-09-24T15:53:20.365Z,100699.64
2018-09-24T15:55:55.155Z,100701.27
2018-09-24T15:58:28.906Z,100712.48
2018-09-24T16:01:02.648Z,100706.44
2018-09-24T16:03:36.582Z,100711.44
2018-09-24T16:06:10.304Z,100707.83
2018-09-24T16:08:43.930Z,100706.38
2018-09-24T16:11:17.616Z,100707.20
2018-09-24T16:13:51.412Z,100698.82
2018-09-24T16:16:25.579Z,100710.93
2018-09-24T16:18:59.513Z,100708.83
2018-09-24T16:21:33.288Z,100704.44
2018-09-24T16:24:07.876Z,100701.73
2018-09-24T16:26:42.201Z,100706.61
2018-09-24T16:29:15.921Z,100717.89
2018-09-24T16:31:49.706Z,100716.50
2018-09-24T16:34:23.386Z,100723.30
2018-09-24T16:36:57.764Z,100725.86
2018-09-24T16:39:31.488Z,100725.80
2018-09-24T16:42:05.691Z,100728.94
2018-09-24T16:44:39.532Z,100737.32
2018-09-24T16:47:14.333Z,100732.68
2018-09-24T16:49:47.915Z,100731.30
2018-09-24T16:52:21.632Z,100735.70
2018-09-24T16:54:55.468Z,100737.88
2018-09-24T16:57:29.704Z,100747.03
2018-09-24T17:00:03.494Z,100746.02
2018-09-24T17:02:37.046Z,100750.33
2018-09-24T17:05:11.608Z,100750.35
2018-09-24T17:07:46.429Z,100752.77
2018-09-24T17:10:20.111Z,100758.59
2018-09-24T17:12:53.835Z,100763.98
2018-09-24T17:15:27.976Z,100768.11
2018-09-24T17:18:02.113Z,100774.05
2018-09-24T17:20:35.969Z,100772.12
2018-09-24T17:23:09.673Z,100779.63
2018-09-24T17:25:43.351Z,100784.95
2018-09-24T17:28:17.925Z,100784.23
2018-09-24T17:30:51.692Z,100788.50
2018-09-24T17:33:25.557Z,100790.19
2018-09-24T17:35:59.158Z,100789.17
2018-09-24T17:38:33.125Z,100795.38
2018-09-24T17:41:06.969Z,100799.13
2018-09-24T17:43:40.580Z,100802.77
2018-09-24T17:46:14.507Z,100811.40
2018-09-24T17:48:48.774Z,100806.89
2018-09-24T17:51:22.485Z,100816.34
2018-09-24T17:53:56.151Z,100820.45
2018-09-24T17:56:30.248Z,100824.25
2018-09-24T17:59:05.639Z,100833.66
2018-09-24T18:01:39.615Z,100836.95
2018-09-24T18:04:13.445Z,100837.20
2018-09-24T18:06:47.235Z,100847.69
2018-09-24T18:09:20.844Z,100843.94
2018-09-24T18:11:54.682Z,100845.62
2018-09-24T18:14:28.390Z,100848.41
2018-09-24T18:17:02.052Z,100852.77
2018-09-24T18:19:36.760Z,100849.53
2018-09-24T18:22:10.328Z,100862.82
2018-09-24T18:24:44.839Z,100861.52
2018-09-24T18:27:18.653Z,100868.14
2018-09-24T18:29:52.508Z,100875.05
2018-09-24T18:32:26.225Z,100875.47
2018-09-24T18:34:59.887Z,100873.35
2018-09-24T18:37:33.724Z,100882.30
2018-09-24T18:40:08.445Z,100881.09
2018-09-24T18:42:42.065Z,100883.02
2018-09-24T18:45:15.871Z,100884.63
2018-09-24T18:47:49.524Z,100892.16
2018-09-24T18:50:23.623Z,100889.33
2018-09-24T18:52:57.352Z,100889.41
2018-09-24T18:55:31.220Z,100889.00
2018-09-24T18:58:05.411Z,100892.92
2018-09-24T19:00:39.901Z,100893.97
2018-09-24T19:03:13.362Z,100901.23
2018-09-24T19:05:46.880Z,100908.05
2018-09-24T19:08:20.899Z,100910.57
2018-09-24T19:10:54.720Z,100901.71
2018-09-24T19:13:28.449Z,100908.43
2018-09-24T19:16:02.312Z,100910.06
2018-09-24T19:18:36.030Z,100916.28
2018-09-24T19:21:10.219Z,100912.45
2018-09-24T19:23:43.915Z,100915.77
2018-09-24T19:26:17.552Z,100913.77
2018-09-24T19:28:51.396Z,100922.98
2018-09-24T19:31:28.168Z,100922.44
2018-09-24T19:34:01.939Z,100930.61
2018-09-24T19:36:35.755Z,100932.33
2018-09-24T19:39:09.600Z,100931.02
2018-09-24T19:41:44.954Z,100928.38
2018-09-24T19:44:18.695Z,100934.36
2018-09-24T19:46:52.528Z,100936.04
2018-09-24T19:49:26.625Z,100942.84
2018-09-24T19:52:01.541Z,100947.78
2018-09-24T19:54:35.245Z,100951.58
2018-09-24T19:57:09.008Z,100946.40
2018-09-24T19:59:43.059Z,100955.14
2018-09-24T20:02:17.412Z,100949.45
2018-09-24T20:04:50.924Z,100954.38
2018-09-24T20:07:25.983Z,100952.36
2018-09-24T20:09:59.583Z,100949.53
2018-09-24T20:12:33.976Z,100954.34
2018-09-24T20:15:07.841Z,100949.10
2018-09-24T20:17:41.552Z,100949.27
2018-09-24T20:20:15.358Z,100946.98
2018-09-24T20:22:50.224Z,100958.63
2018-09-24T20:25:23.939Z,100958.17
2018-09-24T20:27:57.635Z,100955.61
2018-09-24T20:30:31.119Z,100958.00
2018-09-24T20:33:05.915Z,100964.55
2018-09-24T20:35:39.615Z,100958.94
2018-09-24T20:38:13.198Z,100961.88
2018-09-24T20:40:47.024Z,100966.53
2018-09-24T20:43:20.730Z,100962.17
2018-09-24T20:45:54.580Z,100970.82
2018-09-24T20:48:28.177Z,100969.30
2018-09-24T20:51:01.829Z,100974.04
2018-09-24T20:53:36.371Z,100969.88
2018-09-24T20:56:10.088Z,100968.14
2018-09-24T20:58:44.657Z,100977.58
2018-09-24T21:01:18.213Z,100970.76
2018-09-24T21:03:52.415Z,100975.31
2018-09-24T21:06:26.184Z,100976.13
2018-09-24T21:08:59.854Z,100978.20
2018-09-24T21:11:33.507Z,100976.69
2018-09-24T21:14:07.450Z,100984.12
2018-09-24T21:16:41.237Z,100983.21
2018-09-24T21:19:15.055Z,100985.53
2018-09-24T21:21:48.613Z,100985.61
2018-09-24T21:24:23.043Z,100985.20
2018-09-24T21:26:56.970Z,100984.31
2018-09-24T21:29:30.590Z,100990.72
2018-09-24T21:32:07.888Z,100990.91
2018-09-24T21:34:41.882Z,100993.64
2018-09-24T21:37:15.601Z,100999.81
2018-09-24T21:39:49.316Z,100992.47
2018-09-24T21:42:23.004Z,100996.06
2018-09-24T21:44:57.723Z,101002.97
2018-09-24T21:47:31.304Z,101003.48
2018-09-24T21:50:04.959Z,101006.56
2018-09-24T21:52:38.647Z,101014.17
2018-09-24T21:55:13.104Z,101020.09
2018-09-24T21:57:46.880Z,101022.55
2018-09-24T22:00:20.850Z,101032.22
2018-09-24T22:02:54.426Z,101033.63
2018-09-24T22:05:29.269Z,101033.59
2018-09-24T22:08:03.025Z,101038.44
2018-09-24T22:10:36.656Z,101041.23
2018-09-24T22:13:10.403Z,101039.45
2018-09-24T22:15:44.316Z,101044.75
2018-09-24T22:18:18.031Z,101046.70
2018-09-24T22:20:51.551Z,101048.34
2018-09-24T22:23:32.104Z,101053.47
2018-09-24T22:26:06.678Z,101055.18
2018-09-24T22:28:40.441Z,100967.45
2018-09-24T22:31:14.071Z,101052.45
2018-09-24T22:33:47.553Z,101059.17
2018-09-24T22:36:21.509Z,101056.70
2018-09-24T22:38:55.318Z,101052.77
2018-09-24T22:41:29.229Z,101061.41
2018-09-24T22:44:02.909Z,101064.69
2018-09-24T22:46:36.982Z,101068.34
2018-09-24T22:49:10.557Z,101071.44
2018-09-24T22:51:44.360Z,101074.89
2018-09-24T22:54:18.162Z,101072.88
2018-09-24T22:56:52.448Z,101079.25
2018-09-24T22:59:26.237Z,101071.69
2018-09-24T23:02:00.405Z,101073.95
2018-09-24T23:04:34.043Z,101072.31
2018-09-24T23:07:08.214Z,101079.48
2018-09-24T23:09:42.064Z,101068.41
2018-09-24T23:12:15.706Z,101067.94
2018-09-24T23:14:49.433Z,101067.87
2018-09-24T23:17:23.833Z,101069.95
2018-09-24T23:19:57.521Z,101064.01
2018-09-24T23:22:31.157Z,101067.73
2018-09-24T23:25:04.753Z,101068.73
2018-09-24T23:27:38.790Z,101071.67
2018-09-24T23:30:12.379Z,101076.52
2018-09-24T23:32:46.267Z,101075.66
2018-09-24T23:35:20.284Z,101072.81
2018-09-24T23:37:54.749Z,101081.48
2018-09-24T23:40:28.526Z,101079.04
2018-09-24T23:43:02.247Z,101082.13
2018-09-24T23:45:35.944Z,101084.61
2018-09-24T23:48:10.412Z,101090.48
2018-09-24T23:50:44.612Z,101084.36
2018-09-24T23:53:18.907Z,101078.78
2018-09-24T23:55:53.684Z,101085.77
2018-09-24T23:58:28.103Z,101077.78
